createdAt,value
2019-02-25T00:01:47.076Z,-4.69
2019-02-25T00:04:17.908Z,-4.76
2019-02-25T00:06:47.519Z,-4.63
2019-02-25T00:09:22.108Z,-4.58
2019-02-25T00:11:55.668Z,-4.52
2019-02-25T00:14:25.264Z,-4.47
2019-02-25T00:16:55.077Z,-4.41
2019-02-25T00:19:26.630Z,-4.29
2019-02-25T00:21:56.582Z,-4.28
2019-02-25T00:24:28.285Z,-4.25
2019-02-25T00:26:58.134Z,-4.32
2019-02-25T00:29:30.126Z,-4.27
2019-02-25T00:32:01.447Z,-4.30
2019-02-25T00:34:31.100Z,-4.36
2019-02-25T00:37:00.926Z,-4.47
2019-02-25T00:39:34.613Z,-4.56
2019-02-25T00:42:04.374Z,-4.73
2019-02-25T00:44:35.516Z,-4.67
2019-02-25T00:47:07.523Z,-4.73
2019-02-25T00:49:37.111Z,-4.60
2019-02-25T00:52:09.932Z,-4.58
2019-02-25T00:54:39.489Z,-4.62
2019-02-25T00:57:09.163Z,-4.77
2019-02-25T00:59:38.820Z,-4.71
2019-02-25T01:02:08.295Z,-4.95
2019-02-25T01:04:38.091Z,-5.06
2019-02-25T01:07:07.913Z,-5.03
2019-02-25T01:09:38.942Z,-5.08
2019-02-25T01:12:09.571Z,-5.38
2019-02-25T01:14:39.286Z,-5.53
2019-02-25T01:17:09.002Z,-5.66
2019-02-25T01:19:44.378Z,-5.82
2019-02-25T01:22:14.107Z,-5.85
2019-02-25T01:24:45.153Z,-5.77
2019-02-25T01:27:15.823Z,-5.84
2019-02-25T01:29:46.900Z,-5.69
2019-02-25T01:32:16.607Z,-5.56
2019-02-25T01:34:48.069Z,-5.48
2019-02-25T01:37:19.795Z,-5.50
2019-02-25T01:39:49.494Z,-5.41
2019-02-25T01:42:21.238Z,-5.36
2019-02-25T01:44:52.122Z,-5.26
2019-02-25T01:47:21.728Z,-5.11
2019-02-25T01:49:55.210Z,-5.13
2019-02-25T01:52:26.126Z,-5.08
2019-02-25T01:54:58.510Z,-5.06
2019-02-25T01:57:28.142Z,-5.18
2019-02-25T02:00:01.066Z,-5.52
2019-02-25T02:02:30.846Z,-5.66
2019-02-25T02:05:00.436Z,-5.71
2019-02-25T02:07:31.165Z,-5.63
2019-02-25T02:10:05.258Z,-5.47
2019-02-25T02:12:32.605Z,-5.43
2019-02-25T02:15:03.954Z,-5.35
2019-02-25T02:17:35.638Z,-5.40
2019-02-25T02:20:05.858Z,-5.34
2019-02-25T02:22:39.829Z,-5.43
2019-02-25T02:25:14.782Z,-5.61
2019-02-25T02:27:46.352Z,-5.47
2019-02-25T02:30:17.861Z,-5.42
2019-02-25T02:32:47.591Z,-5.40
2019-02-25T02:35:21.837Z,-5.34
2019-02-25T02:37:54.563Z,-5.53
2019-02-25T02:40:27.020Z,-5.43
2019-02-25T02:42:57.792Z,-5.41
2019-02-25T02:45:42.203Z,-5.72
2019-02-25T02:48:17.662Z,-5.85
2019-02-25T02:50:49.384Z,-5.66
2019-02-25T02:53:26.006Z,-5.57
2019-02-25T02:55:55.707Z,-5.58
2019-02-25T02:58:25.388Z,-5.56
2019-02-25T03:00:59.438Z,-5.72
2019-02-25T03:03:29.176Z,-5.76
2019-02-25T03:06:08.589Z,-5.79
2019-02-25T03:08:38.203Z,-5.84
2019-02-25T03:11:07.969Z,-5.75
2019-02-25T03:13:37.702Z,-5.76
2019-02-25T03:16:11.191Z,-6.05
2019-02-25T03:18:44.112Z,-5.88
2019-02-25T03:21:14.871Z,-5.77
2019-02-25T03:23:44.659Z,-5.69
2019-02-25T03:26:14.423Z,-5.63
2019-02-25T03:28:48.789Z,-5.65
2019-02-25T03:31:18.536Z,-5.74
2019-02-25T03:33:48.211Z,-5.98
2019-02-25T03:36:20.653Z,-6.08
2019-02-25T03:38:50.281Z,-6.24
2019-02-25T03:41:21.221Z,-6.36
2019-02-25T03:43:55.957Z,-6.67
2019-02-25T03:46:27.048Z,-6.79
2019-02-25T03:48:56.663Z,-6.82
2019-02-25T03:51:28.455Z,-6.91
2019-02-25T03:54:00.043Z,-6.86
2019-02-25T03:56:29.683Z,-6.84
2019-02-25T03:59:03.674Z,-6.83
2019-02-25T04:01:35.929Z,-6.97
2019-02-25T04:04:05.712Z,-7.06
2019-02-25T04:06:36.872Z,-7.08
2019-02-25T04:09:11.086Z,-7.03
2019-02-25T04:11:43.732Z,-6.85
2019-02-25T04:14:13.472Z,-6.95
2019-02-25T04:16:43.148Z,-6.75
2019-02-25T04:19:12.833Z,-6.53
2019-02-25T04:21:47.395Z,-6.53
2019-02-25T04:24:18.479Z,-6.45
2019-02-25T04:26:48.054Z,-6.47
2019-02-25T04:29:19.502Z,-6.43
2019-02-25T04:33:42.498Z,-6.64
2019-02-25T04:36:11.999Z,-6.74
2019-02-25T04:38:42.843Z,-6.58
2019-02-25T04:41:17.913Z,-6.52
2019-02-25T04:43:47.152Z,-6.53
2019-02-25T04:46:20.123Z,-6.35
2019-02-25T04:48:53.718Z,-6.24
2019-02-25T04:51:28.754Z,-6.29
2019-02-25T04:54:04.212Z,-6.31
2019-02-25T04:56:34.002Z,-6.24
2019-02-25T04:59:06.519Z,-6.16
2019-02-25T05:01:36.145Z,-6.12
2019-02-25T05:04:07.123Z,-6.06
2019-02-25T05:06:36.766Z,-6.01
2019-02-25T05:09:09.563Z,-6.16
2019-02-25T05:11:39.221Z,-6.28
2019-02-25T05:14:11.694Z,-6.24
2019-02-25T05:16:43.854Z,-6.44
2019-02-25T05:19:16.454Z,-6.59
2019-02-25T05:21:46.141Z,-6.68
2019-02-25T05:24:15.907Z,-6.81
2019-02-25T05:26:45.465Z,-6.71
2019-02-25T05:29:16.336Z,-6.50
2019-02-25T05:31:47.919Z,-6.58
2019-02-25T05:34:17.282Z,-6.35
2019-02-25T05:36:51.541Z,-6.26
2019-02-25T05:39:28.509Z,-6.27
2019-02-25T05:41:58.108Z,-6.39
2019-02-25T05:44:27.622Z,-6.42
2019-02-25T05:47:18.681Z,-6.43
2019-02-25T05:49:51.812Z,-6.37
2019-02-25T05:52:23.273Z,-6.20
2019-02-25T05:54:53.164Z,-5.93
2019-02-25T05:57:24.413Z,-5.68
2019-02-25T06:00:03.656Z,-5.52
2019-02-25T06:02:34.397Z,-5.43
2019-02-25T06:05:07.651Z,-5.36
2019-02-25T06:07:38.580Z,-5.28
2019-02-25T06:10:12.658Z,-5.17
2019-02-25T06:12:47.816Z,-5.11
2019-02-25T06:15:17.850Z,-5.17
2019-02-25T06:17:48.485Z,-5.13
2019-02-25T06:20:19.476Z,-4.91
2019-02-25T06:22:49.067Z,-4.65
2019-02-25T06:25:18.737Z,-4.48
2019-02-25T06:27:48.306Z,-3.84
2019-02-25T06:30:19.548Z,-2.83
2019-02-25T06:32:53.653Z,-1.70
2019-02-25T06:35:25.396Z,-0.49
2019-02-25T06:37:58.062Z,0.76
2019-02-25T06:40:27.901Z,2.04
2019-02-25T06:42:57.702Z,3.22
2019-02-25T06:45:27.546Z,5.42
2019-02-25T06:47:59.544Z,7.01
2019-02-25T06:50:29.272Z,8.51
2019-02-25T06:52:58.939Z,8.93
2019-02-25T06:55:28.679Z,10.87
2019-02-25T06:57:58.251Z,12.25
2019-02-25T07:00:28.020Z,13.18
2019-02-25T07:02:58.820Z,13.67
2019-02-25T07:05:54.685Z,14.32
2019-02-25T07:08:43.295Z,14.60
2019-02-25T07:11:37.931Z,15.03
2019-02-25T07:14:31.055Z,15.13
2019-02-25T07:17:22.752Z,16.25
2019-02-25T07:20:03.180Z,17.76
2019-02-25T07:23:01.014Z,18.31
2019-02-25T07:25:40.325Z,19.47
2019-02-25T07:28:20.642Z,19.18
2019-02-25T07:31:11.303Z,19.03
2019-02-25T07:34:01.802Z,20.28
2019-02-25T07:37:09.909Z,20.45
2019-02-25T07:40:17.426Z,21.02
2019-02-25T07:43:12.237Z,20.82
2019-02-25T07:46:05.150Z,19.79
2019-02-25T07:48:57.836Z,20.85
2019-02-25T07:51:51.308Z,21.51
2019-02-25T07:54:43.735Z,21.42
2019-02-25T07:57:23.802Z,21.07
2019-02-25T08:00:07.951Z,21.83
2019-02-25T08:03:00.194Z,23.14
2019-02-25T08:05:59.934Z,23.81
2019-02-25T08:08:48.094Z,24.49
2019-02-25T08:11:27.689Z,24.95
2019-02-25T08:14:05.990Z,24.30
2019-02-25T08:16:50.557Z,24.19
2019-02-25T08:19:39.862Z,24.64
2019-02-25T08:22:26.745Z,23.64
2019-02-25T08:25:17.828Z,24.45
2019-02-25T08:28:05.703Z,25.18
2019-02-25T08:31:01.283Z,25.93
2019-02-25T08:34:18.155Z,26.41
2019-02-25T08:37:47.570Z,26.99
2019-02-25T08:41:08.381Z,27.13
2019-02-25T08:44:15.004Z,27.18
2019-02-25T08:47:06.754Z,26.73
2019-02-25T08:49:49.280Z,26.41
2019-02-25T08:52:20.112Z,25.12
2019-02-25T08:54:54.456Z,25.29
2019-02-25T08:57:24.486Z,24.73
2019-02-25T08:59:57.242Z,24.39
2019-02-25T09:02:30.302Z,25.28
2019-02-25T09:05:00.925Z,26.53
2019-02-25T09:07:33.548Z,27.04
2019-02-25T09:10:07.079Z,27.81
2019-02-25T09:12:36.627Z,28.47
2019-02-25T09:15:07.892Z,26.61
2019-02-25T09:17:45.673Z,25.67
2019-02-25T09:20:18.988Z,25.22
2019-02-25T09:22:51.299Z,24.72
2019-02-25T09:25:21.712Z,23.67
2019-02-25T09:27:51.680Z,23.75
2019-02-25T09:30:21.843Z,23.53
2019-02-25T09:32:52.174Z,22.35
2019-02-25T09:35:22.011Z,22.79
2019-02-25T09:37:54.433Z,23.91
2019-02-25T09:40:24.974Z,24.71
2019-02-25T09:42:55.893Z,26.31
2019-02-25T09:45:28.219Z,26.85
2019-02-25T09:47:59.777Z,25.91
2019-02-25T09:50:31.859Z,25.12
2019-02-25T09:53:03.852Z,25.08
2019-02-25T09:55:38.671Z,25.60
2019-02-25T09:58:11.083Z,26.63
2019-02-25T10:00:40.792Z,24.49
2019-02-25T10:03:10.523Z,23.33
2019-02-25T10:05:42.835Z,22.30
2019-02-25T10:08:15.526Z,20.95
2019-02-25T10:10:48.387Z,20.90
2019-02-25T10:13:19.764Z,23.65
2019-02-25T10:15:49.982Z,23.62
2019-02-25T10:18:20.586Z,24.69
2019-02-25T10:20:50.082Z,25.33
2019-02-25T10:23:24.088Z,23.82
2019-02-25T10:25:53.733Z,25.14
2019-02-25T10:28:23.346Z,24.51
2019-02-25T10:30:53.357Z,23.09
2019-02-25T10:33:25.828Z,23.28
2019-02-25T10:35:55.507Z,22.09
2019-02-25T10:38:25.173Z,20.16
2019-02-25T10:40:54.869Z,18.97
2019-02-25T10:43:28.075Z,17.10
2019-02-25T10:45:58.787Z,16.65
2019-02-25T10:48:29.891Z,15.07
2019-02-25T10:50:59.652Z,15.02
2019-02-25T10:53:29.431Z,14.35
2019-02-25T10:56:04.882Z,13.45
2019-02-25T10:58:35.978Z,13.17
2019-02-25T11:01:08.460Z,13.06
2019-02-25T11:03:37.449Z,12.68
2019-02-25T11:06:09.142Z,13.22
2019-02-25T11:08:41.486Z,13.56
2019-02-25T11:11:18.809Z,13.44
2019-02-25T11:13:49.199Z,13.58
2019-02-25T11:16:24.437Z,13.53
2019-02-25T11:18:57.013Z,12.87
2019-02-25T11:21:26.674Z,12.13
2019-02-25T11:23:59.223Z,11.93
2019-02-25T11:26:30.699Z,12.15
2019-02-25T11:29:00.261Z,12.18
2019-02-25T11:31:30.031Z,11.94
2019-02-25T11:34:00.649Z,13.96
2019-02-25T11:36:33.050Z,16.01
2019-02-25T11:39:06.916Z,16.83
2019-02-25T11:41:40.987Z,17.77
2019-02-25T11:44:10.536Z,19.35
2019-02-25T11:46:40.287Z,20.47
2019-02-25T11:49:11.517Z,21.30
2019-02-25T11:51:44.499Z,22.25
2019-02-25T11:54:15.337Z,22.58
2019-02-25T11:56:46.209Z,21.84
2019-02-25T11:59:15.707Z,19.81
2019-02-25T12:01:46.667Z,17.03
2019-02-25T12:04:19.442Z,15.39
2019-02-25T12:06:49.077Z,13.83
2019-02-25T12:09:18.760Z,12.93
2019-02-25T12:11:50.051Z,11.70
2019-02-25T12:14:19.744Z,11.29
2019-02-25T12:16:49.366Z,10.62
2019-02-25T12:19:19.090Z,10.03
2019-02-25T12:21:48.740Z,9.81
2019-02-25T12:24:20.140Z,9.39
2019-02-25T12:26:49.801Z,8.76
2019-02-25T12:29:19.351Z,8.26
2019-02-25T12:31:55.203Z,7.89
2019-02-25T12:34:24.759Z,7.61
2019-02-25T12:36:56.359Z,7.64
2019-02-25T12:39:27.132Z,7.29
2019-02-25T12:41:59.405Z,7.07
2019-02-25T12:44:29.070Z,7.07
2019-02-25T12:46:58.681Z,7.33
2019-02-25T12:49:29.770Z,7.71
2019-02-25T12:51:59.468Z,7.71
2019-02-25T12:54:29.119Z,7.83
2019-02-25T12:57:01.749Z,7.56
2019-02-25T12:59:33.904Z,7.43
2019-02-25T13:02:03.346Z,7.43
2019-02-25T13:04:34.915Z,7.24
2019-02-25T13:07:04.654Z,6.76
2019-02-25T13:09:36.261Z,5.96
2019-02-25T13:12:05.924Z,6.46
2019-02-25T13:14:37.658Z,6.46
2019-02-25T13:17:08.687Z,6.43
2019-02-25T13:19:38.438Z,6.44
2019-02-25T13:22:11.441Z,6.54
2019-02-25T13:24:42.571Z,5.90
2019-02-25T13:27:14.255Z,5.90
2019-02-25T13:29:43.987Z,5.56
2019-02-25T13:32:13.526Z,5.30
2019-02-25T13:34:43.248Z,5.28
2019-02-25T13:37:12.772Z,5.56
2019-02-25T13:39:43.462Z,5.65
2019-02-25T13:42:14.390Z,6.05
2019-02-25T13:44:43.939Z,6.20
2019-02-25T13:47:15.271Z,6.14
2019-02-25T13:49:46.043Z,6.20
2019-02-25T13:52:17.043Z,6.53
2019-02-25T13:54:47.916Z,6.83
2019-02-25T13:57:17.547Z,6.94
2019-02-25T13:59:47.112Z,6.97
2019-02-25T14:02:16.817Z,6.89
2019-02-25T14:04:48.185Z,7.36
2019-02-25T14:07:18.193Z,7.36
2019-02-25T14:09:47.779Z,7.60
2019-02-25T14:12:17.455Z,7.44
2019-02-25T14:14:47.171Z,7.54
2019-02-25T14:17:17.095Z,7.54
2019-02-25T14:19:46.685Z,6.91
2019-02-25T14:22:19.569Z,6.70
2019-02-25T14:24:49.366Z,6.63
2019-02-25T14:27:18.925Z,6.62
2019-02-25T14:29:48.947Z,6.69
2019-02-25T14:32:20.409Z,6.64
2019-02-25T14:34:50.403Z,6.66
2019-02-25T14:37:26.044Z,6.16
2019-02-25T14:39:56.685Z,6.03
2019-02-25T14:42:28.905Z,6.14
2019-02-25T14:45:01.075Z,5.97
2019-02-25T14:47:35.102Z,5.67
2019-02-25T14:50:03.930Z,5.60
2019-02-25T14:52:35.702Z,5.60
2019-02-25T14:55:07.102Z,5.41
2019-02-25T14:57:38.078Z,5.16
2019-02-25T15:00:13.351Z,4.96
2019-02-25T15:02:50.246Z,4.92
2019-02-25T15:05:19.858Z,4.81
2019-02-25T15:07:51.157Z,4.79
2019-02-25T15:10:26.555Z,4.66
2019-02-25T15:12:56.472Z,4.55
2019-02-25T15:15:26.383Z,4.47
2019-02-25T15:17:55.955Z,4.44
2019-02-25T15:20:26.783Z,4.35
2019-02-25T15:23:03.464Z,4.32
2019-02-25T15:25:40.265Z,4.40
2019-02-25T15:28:11.921Z,4.44
2019-02-25T15:30:43.207Z,4.54
2019-02-25T15:33:15.987Z,4.44
2019-02-25T15:35:45.774Z,4.56
2019-02-25T15:38:22.697Z,4.68
2019-02-25T15:40:49.980Z,4.72
2019-02-25T15:43:22.900Z,4.71
2019-02-25T15:45:52.297Z,4.77
2019-02-25T15:48:22.401Z,4.88
2019-02-25T15:50:55.487Z,4.99
2019-02-25T15:53:28.461Z,5.06
2019-02-25T15:56:03.691Z,5.06
2019-02-25T15:58:33.380Z,5.06
2019-02-25T16:01:02.993Z,4.99
2019-02-25T16:03:35.143Z,4.95
2019-02-25T16:06:08.367Z,4.96
2019-02-25T16:08:49.832Z,5.01
2019-02-25T16:11:18.808Z,4.98
2019-02-25T16:13:49.140Z,4.97
2019-02-25T16:16:20.475Z,5.03
2019-02-25T16:18:53.519Z,5.02
2019-02-25T16:21:26.663Z,5.12
2019-02-25T16:23:59.295Z,5.18
2019-02-25T16:26:36.049Z,5.20
2019-02-25T16:29:04.635Z,5.25
2019-02-25T16:31:35.240Z,5.04
2019-02-25T16:34:04.729Z,4.73
2019-02-25T16:36:34.297Z,4.58
2019-02-25T16:39:07.241Z,4.46
2019-02-25T16:41:38.410Z,4.64
2019-02-25T16:44:09.119Z,4.75
2019-02-25T16:46:43.537Z,4.85
2019-02-25T16:49:12.942Z,4.63
2019-02-25T16:51:42.770Z,4.51
2019-02-25T16:54:13.581Z,4.46
2019-02-25T16:56:44.236Z,4.40
2019-02-25T16:59:15.713Z,4.40
2019-02-25T17:01:45.640Z,4.43
2019-02-25T17:04:16.843Z,4.55
2019-02-25T17:06:49.030Z,4.65
2019-02-25T17:09:23.667Z,4.69
2019-02-25T17:11:53.378Z,4.69
2019-02-25T17:14:25.616Z,4.64
2019-02-25T17:16:57.365Z,4.64
2019-02-25T17:19:26.821Z,4.59
2019-02-25T17:21:56.513Z,4.52
2019-02-25T17:24:30.344Z,4.09
2019-02-25T17:27:01.933Z,4.09
2019-02-25T17:29:33.570Z,3.98
2019-02-25T17:32:03.618Z,3.60
2019-02-25T17:34:34.486Z,3.54
2019-02-25T17:37:05.947Z,3.43
2019-02-25T17:39:37.637Z,3.43
2019-02-25T17:42:16.021Z,3.19
2019-02-25T17:44:46.263Z,3.10
2019-02-25T17:47:24.060Z,3.10
2019-02-25T17:49:47.206Z,3.03
2019-02-25T17:52:18.514Z,2.94
2019-02-25T17:54:51.696Z,2.92
2019-02-25T17:57:21.605Z,2.85
2019-02-25T17:59:54.885Z,2.84
2019-02-25T18:02:22.764Z,2.97
2019-02-25T18:04:53.293Z,2.71
2019-02-25T18:07:23.484Z,2.71
2019-02-25T18:09:54.582Z,2.63
2019-02-25T18:12:25.718Z,2.49
2019-02-25T18:14:56.613Z,2.49
2019-02-25T18:17:26.668Z,2.27
2019-02-25T18:19:56.858Z,2.33
2019-02-25T18:22:26.571Z,2.33
2019-02-25T18:24:56.161Z,2.40
2019-02-25T18:27:28.792Z,2.49
2019-02-25T18:29:59.315Z,2.31
2019-02-25T18:32:30.569Z,2.31
2019-02-25T18:35:02.049Z,2.29
2019-02-25T18:37:35.281Z,2.33
2019-02-25T18:40:05.274Z,2.18
2019-02-25T18:42:36.562Z,2.21
2019-02-25T18:45:08.695Z,2.21
2019-02-25T18:47:39.303Z,2.36
2019-02-25T18:50:17.418Z,2.36
2019-02-25T18:52:44.088Z,2.35
2019-02-25T18:55:15.393Z,2.23
2019-02-25T18:57:46.122Z,2.21
2019-02-25T19:00:24.299Z,2.07
2019-02-25T19:02:56.183Z,2.07
2019-02-25T19:05:29.766Z,2.17
2019-02-25T19:08:00.836Z,2.15
2019-02-25T19:10:30.887Z,2.21
2019-02-25T19:13:01.154Z,1.89
2019-02-25T19:15:31.054Z,1.89
2019-02-25T19:18:03.574Z,1.99
2019-02-25T19:20:34.793Z,2.23
2019-02-25T19:23:09.465Z,2.23
2019-02-25T19:25:37.704Z,2.25
2019-02-25T19:28:07.730Z,2.20
2019-02-25T19:30:37.420Z,2.20
2019-02-25T19:33:11.352Z,2.17
2019-02-25T19:35:40.967Z,1.92
2019-02-25T19:38:12.944Z,1.95
2019-02-25T19:40:43.209Z,2.02
2019-02-25T19:43:14.104Z,1.86
2019-02-25T19:45:45.455Z,1.94
2019-02-25T19:48:16.442Z,1.59
2019-02-25T19:50:51.000Z,1.59
2019-02-25T19:53:20.019Z,1.73
2019-02-25T19:55:51.083Z,1.72
2019-02-25T19:58:20.375Z,1.55
2019-02-25T20:00:58.420Z,1.46
2019-02-25T20:03:25.320Z,1.19
2019-02-25T20:05:56.314Z,1.19
2019-02-25T20:08:26.181Z,1.33
2019-02-25T20:10:55.915Z,1.33
2019-02-25T20:13:25.699Z,1.50
2019-02-25T20:15:57.523Z,1.51
2019-02-25T20:18:26.886Z,1.27
2019-02-25T20:20:57.773Z,1.44
2019-02-25T20:23:28.824Z,1.53
2019-02-25T20:25:59.546Z,1.57
2019-02-25T20:28:29.159Z,1.67
2019-02-25T20:31:01.763Z,1.67
2019-02-25T20:33:32.951Z,1.56
2019-02-25T20:36:03.270Z,1.56
2019-02-25T20:38:34.813Z,1.62
2019-02-25T20:41:07.018Z,1.62
2019-02-25T20:43:36.832Z,1.53
2019-02-25T20:46:08.577Z,1.48
2019-02-25T20:48:38.159Z,1.48
2019-02-25T20:51:09.473Z,1.53
2019-02-25T20:53:39.146Z,1.50
2019-02-25T20:56:08.938Z,1.49
2019-02-25T20:58:43.050Z,1.43
2019-02-25T21:01:16.095Z,1.43
2019-02-25T21:03:46.023Z,1.36
2019-02-25T21:06:19.528Z,1.36
2019-02-25T21:08:48.333Z,1.28
2019-02-25T21:11:19.443Z,1.22
2019-02-25T21:13:51.200Z,1.17
2019-02-25T21:16:24.042Z,1.17
2019-02-25T21:18:56.094Z,1.18
2019-02-25T21:21:28.528Z,1.25
2019-02-25T21:24:01.310Z,1.25
2019-02-25T21:26:31.536Z,1.26
2019-02-25T21:29:06.878Z,1.28
2019-02-25T21:31:36.569Z,1.26
2019-02-25T21:34:06.770Z,1.29
2019-02-25T21:36:38.228Z,1.29
2019-02-25T21:39:12.279Z,1.24
2019-02-25T21:41:43.508Z,1.25
2019-02-25T21:44:16.699Z,1.28
2019-02-25T21:46:49.579Z,1.31
2019-02-25T21:49:16.532Z,1.23
2019-02-25T21:51:48.350Z,1.21
2019-02-25T21:54:18.111Z,1.26
2019-02-25T21:56:47.849Z,1.34
2019-02-25T21:59:17.706Z,1.34
2019-02-25T22:01:47.382Z,1.42
2019-02-25T22:04:18.066Z,1.45
2019-02-25T22:06:50.964Z,1.51
2019-02-25T22:09:35.276Z,1.51
2019-02-25T22:11:51.222Z,1.55
2019-02-25T22:14:21.786Z,1.58
2019-02-25T22:16:54.283Z,1.58
2019-02-25T22:19:23.641Z,1.52
2019-02-25T22:21:55.644Z,1.57
2019-02-25T22:24:27.159Z,1.46
2019-02-25T22:26:57.954Z,1.46
2019-02-25T22:29:27.271Z,1.33
2019-02-25T22:31:59.576Z,1.33
2019-02-25T22:34:28.549Z,1.33
2019-02-25T22:36:58.249Z,1.29
2019-02-25T22:39:30.224Z,1.29
2019-02-25T22:41:59.385Z,1.38
2019-02-25T22:44:30.821Z,1.31
2019-02-25T22:47:05.151Z,1.26
2019-02-25T22:49:36.887Z,1.25
2019-02-25T22:52:07.479Z,1.26
2019-02-25T22:54:39.145Z,1.23
2019-02-25T22:57:12.269Z,1.13
2019-02-25T22:59:44.365Z,1.13
2019-02-25T23:02:16.429Z,1.07
2019-02-25T23:04:49.164Z,1.10
2019-02-25T23:07:20.543Z,1.08
2019-02-25T23:09:52.228Z,1.08
2019-02-25T23:12:25.009Z,1.07
2019-02-25T23:14:56.132Z,1.12
2019-02-25T23:17:26.924Z,1.13
2019-02-25T23:19:57.967Z,1.18
2019-02-25T23:22:30.092Z,1.18
2019-02-25T23:25:07.041Z,1.07
2019-02-25T23:27:37.096Z,1.08
2019-02-25T23:30:08.634Z,1.12
2019-02-25T23:32:40.528Z,1.14
2019-02-25T23:35:13.606Z,1.21
2019-02-25T23:37:49.042Z,1.17
2019-02-25T23:40:17.954Z,1.20
2019-02-25T23:42:49.114Z,1.15
2019-02-25T23:45:22.492Z,1.15
2019-02-25T23:47:55.303Z,1.14
2019-02-25T23:50:21.741Z,1.14
2019-02-25T23:52:54.416Z,1.08
2019-02-25T23:55:29.664Z,1.07
2019-02-25T23:57:59.379Z,1.11
